createdAt,value
2022-12-25T00:01:08.917Z,17.57
2022-12-25T00:03:12.295Z,17.07
2022-12-25T00:05:15.142Z,17.77
2022-12-25T00:07:17.902Z,17.27
2022-12-25T00:09:20.667Z,18.07
2022-12-25T00:11:24.708Z,17.73
2022-12-25T00:13:27.534Z,18.33
2022-12-25T00:15:30.405Z,16.70
2022-12-25T00:17:33.165Z,18.23
2022-12-25T00:19:35.878Z,18.57
2022-12-25T00:21:38.746Z,17.97
2022-12-25T00:23:42.055Z,19.50
2022-12-25T00:25:44.803Z,17.83
2022-12-25T00:27:51.342Z,17.17
2022-12-25T00:29:54.053Z,17.37
2022-12-25T00:31:56.929Z,17.17
2022-12-25T00:33:59.892Z,17.37
2022-12-25T00:36:03.180Z,16.87
2022-12-25T00:38:06.394Z,18.57
2022-12-25T00:40:10.422Z,17.53
2022-12-25T00:42:23.613Z,18.53
2022-12-25T00:44:28.020Z,16.57
2022-12-25T00:46:31.048Z,18.50
2022-12-25T00:48:34.562Z,18.13
2022-12-25T00:50:39.050Z,18.40
2022-12-25T00:52:41.853Z,18.27
2022-12-25T00:54:44.624Z,19.17
2022-12-25T00:56:47.562Z,17.27
2022-12-25T00:58:50.474Z,19.17
2022-12-25T01:00:54.753Z,19.13
2022-12-25T01:02:57.682Z,17.93
2022-12-25T01:05:00.504Z,18.50
2022-12-25T01:07:03.212Z,18.47
2022-12-25T01:09:24.179Z,17.70
2022-12-25T01:11:27.207Z,18.23
2022-12-25T01:13:30.918Z,18.30
2022-12-25T01:15:33.809Z,17.73
2022-12-25T01:17:38.128Z,17.63
2022-12-25T01:19:41.025Z,17.73
2022-12-25T01:21:43.808Z,18.57
2022-12-25T01:23:46.897Z,17.60
2022-12-25T01:25:49.725Z,18.47
2022-12-25T01:27:52.429Z,17.77
2022-12-25T01:29:55.157Z,18.37
2022-12-25T01:31:57.926Z,17.50
2022-12-25T01:34:02.051Z,18.33
2022-12-25T01:36:05.540Z,16.10
2022-12-25T01:38:12.121Z,16.17
2022-12-25T01:40:15.082Z,16.57
2022-12-25T01:42:18.933Z,17.10
2022-12-25T01:44:59.316Z,16.13
2022-12-25T01:47:02.201Z,16.63
2022-12-25T01:49:09.341Z,16.17
2022-12-25T01:51:21.554Z,16.60
2022-12-25T01:53:26.892Z,16.63
2022-12-25T01:55:30.675Z,16.40
2022-12-25T01:57:35.646Z,16.23
2022-12-25T01:59:38.534Z,16.97
2022-12-25T02:01:41.636Z,16.47
2022-12-25T02:03:44.620Z,17.63
2022-12-25T02:05:49.194Z,16.77
2022-12-25T02:07:52.972Z,16.17
2022-12-25T02:09:55.742Z,16.13
2022-12-25T02:11:58.783Z,15.90
2022-12-25T02:14:01.811Z,15.60
2022-12-25T02:16:10.801Z,16.57
2022-12-25T02:18:20.170Z,16.77
2022-12-25T02:20:41.942Z,16.17
2022-12-25T02:22:57.372Z,14.60
2022-12-25T02:25:09.360Z,15.23
2022-12-25T02:27:28.825Z,15.63
2022-12-25T02:29:40.331Z,16.57
2022-12-25T02:31:49.557Z,16.93
2022-12-25T02:34:04.651Z,17.63
2022-12-25T02:36:12.305Z,17.13
2022-12-25T02:38:19.509Z,15.27
2022-12-25T02:40:27.362Z,17.83
2022-12-25T02:42:55.376Z,17.90
2022-12-25T02:45:17.169Z,16.93
2022-12-25T02:47:49.685Z,15.30
2022-12-25T02:50:12.183Z,17.40
2022-12-25T02:52:40.644Z,17.97
2022-12-25T02:55:04.494Z,16.50
2022-12-25T02:57:29.522Z,15.57
2022-12-25T02:59:51.715Z,13.67
2022-12-25T03:02:14.909Z,15.20
2022-12-25T03:04:40.361Z,15.07
2022-12-25T03:06:57.250Z,17.07
2022-12-25T03:09:17.542Z,17.13
2022-12-25T03:11:32.827Z,17.53
2022-12-25T03:13:39.091Z,16.93
2022-12-25T03:15:59.725Z,17.10
2022-12-25T03:18:07.238Z,15.20
2022-12-25T03:20:28.815Z,18.07
2022-12-25T03:22:50.614Z,16.07
2022-12-25T03:25:10.956Z,15.83
2022-12-25T03:27:13.681Z,15.50
2022-12-25T03:29:36.514Z,16.97
2022-12-25T03:31:46.052Z,15.93
2022-12-25T03:34:20.659Z,16.33
2022-12-25T03:36:32.605Z,14.30
2022-12-25T03:39:08.177Z,15.33
2022-12-25T03:41:37.046Z,17.57
2022-12-25T03:44:05.120Z,15.93
2022-12-25T03:46:29.870Z,15.27
2022-12-25T03:48:54.092Z,16.37
2022-12-25T03:51:22.313Z,16.33
2022-12-25T03:53:46.454Z,17.30
2022-12-25T03:56:08.706Z,15.40
2022-12-25T03:58:36.480Z,15.67
2022-12-25T04:00:56.702Z,16.20
2022-12-25T04:03:17.270Z,16.43
2022-12-25T04:05:37.934Z,16.20
2022-12-25T04:07:59.634Z,15.90
2022-12-25T04:10:20.192Z,16.33
2022-12-25T04:12:40.645Z,15.47
2022-12-25T04:15:00.430Z,15.53
2022-12-25T04:17:21.041Z,14.60
2022-12-25T04:19:41.489Z,14.80
2022-12-25T04:22:01.978Z,15.80
2022-12-25T04:24:24.920Z,16.03
2022-12-25T04:26:45.422Z,14.37
2022-12-25T04:29:06.098Z,13.30
2022-12-25T04:31:26.935Z,14.73
2022-12-25T04:33:47.107Z,13.43
2022-12-25T04:36:08.223Z,13.53
2022-12-25T04:38:11.002Z,13.60
2022-12-25T04:40:15.423Z,15.17
2022-12-25T04:42:19.233Z,14.40
2022-12-25T04:44:21.991Z,12.93
2022-12-25T04:46:24.730Z,13.50
2022-12-25T04:48:28.726Z,13.17
2022-12-25T04:50:31.456Z,11.97
2022-12-25T04:52:37.003Z,13.00
2022-12-25T04:54:39.923Z,11.37
2022-12-25T04:56:46.048Z,11.90
2022-12-25T04:58:49.135Z,12.03
2022-12-25T05:00:51.931Z,12.23
2022-12-25T05:02:54.855Z,11.13
2022-12-25T05:04:57.855Z,11.33
2022-12-25T05:07:00.609Z,11.03
2022-12-25T05:09:03.428Z,10.83
2022-12-25T05:11:07.539Z,11.80
2022-12-25T05:13:11.617Z,11.60
2022-12-25T05:15:14.455Z,11.17
2022-12-25T05:17:17.284Z,10.90
2022-12-25T05:19:20.312Z,10.37
2022-12-25T05:21:23.180Z,10.33
2022-12-25T05:23:26.161Z,10.47
2022-12-25T05:25:28.932Z,10.90
2022-12-25T05:27:31.716Z,9.53
2022-12-25T05:29:36.053Z,10.90
2022-12-25T05:31:39.035Z,9.30
2022-12-25T05:33:42.887Z,10.60
2022-12-25T05:35:45.740Z,9.90
2022-12-25T05:37:48.477Z,9.97
2022-12-25T05:39:51.319Z,10.10
2022-12-25T05:41:54.031Z,9.53
2022-12-25T05:43:56.825Z,10.03
2022-12-25T05:46:05.791Z,10.57
2022-12-25T05:48:09.748Z,9.43
2022-12-25T05:50:12.711Z,9.80
2022-12-25T05:52:15.642Z,9.73
2022-12-25T05:54:18.436Z,10.03
2022-12-25T05:56:21.881Z,10.43
2022-12-25T05:58:24.605Z,10.23
2022-12-25T06:00:27.307Z,10.40
2022-12-25T06:02:31.897Z,9.83
2022-12-25T06:04:34.800Z,10.83
2022-12-25T06:06:37.586Z,10.50
2022-12-25T06:08:40.335Z,9.67
2022-12-25T06:10:43.338Z,9.03
2022-12-25T06:12:46.077Z,9.57
2022-12-25T06:14:48.793Z,9.03
2022-12-25T06:16:52.860Z,10.00
2022-12-25T06:18:57.277Z,9.87
2022-12-25T06:21:00.043Z,9.33
2022-12-25T06:23:03.099Z,9.03
2022-12-25T06:25:06.703Z,9.67
2022-12-25T06:27:09.872Z,9.33
2022-12-25T06:29:12.978Z,9.30
2022-12-25T06:31:18.408Z,9.83
2022-12-25T06:33:21.231Z,9.03
2022-12-25T06:35:25.542Z,9.23
2022-12-25T06:37:28.465Z,9.37
2022-12-25T06:39:31.974Z,9.77
2022-12-25T06:41:34.869Z,9.20
2022-12-25T06:43:37.967Z,9.17
2022-12-25T06:45:40.842Z,9.03
2022-12-25T06:47:43.576Z,8.67
2022-12-25T06:49:46.339Z,8.93
2022-12-25T06:51:50.434Z,9.97
2022-12-25T06:53:54.469Z,8.83
2022-12-25T06:56:03.862Z,8.77
2022-12-25T06:58:06.717Z,9.10
2022-12-25T07:00:10.731Z,8.47
2022-12-25T07:02:18.855Z,8.13
2022-12-25T07:04:28.541Z,8.53
2022-12-25T07:06:31.415Z,8.67
2022-12-25T07:08:35.631Z,9.13
2022-12-25T07:10:38.391Z,9.50
2022-12-25T07:12:41.109Z,9.30
2022-12-25T07:14:45.557Z,9.43
2022-12-25T07:16:48.326Z,9.77
2022-12-25T07:18:51.145Z,8.73
2022-12-25T07:20:55.551Z,8.70
2022-12-25T07:22:58.279Z,8.97
2022-12-25T07:25:02.421Z,9.40
2022-12-25T07:27:05.345Z,8.93
2022-12-25T07:29:08.122Z,8.33
2022-12-25T07:31:15.544Z,9.27
2022-12-25T07:33:18.697Z,7.93
2022-12-25T07:35:21.510Z,8.43
2022-12-25T07:37:24.376Z,8.60
2022-12-25T07:39:27.170Z,8.80
2022-12-25T07:41:31.491Z,8.40
2022-12-25T07:43:34.311Z,8.63
2022-12-25T07:45:37.231Z,7.83
2022-12-25T07:47:40.042Z,8.03
2022-12-25T07:49:42.751Z,7.90
2022-12-25T07:51:45.495Z,7.40
2022-12-25T07:53:48.240Z,7.63
2022-12-25T07:55:58.249Z,7.80
2022-12-25T07:58:02.492Z,8.20
2022-12-25T08:00:06.324Z,8.00
2022-12-25T08:02:11.358Z,7.90
2022-12-25T08:04:14.561Z,7.37
2022-12-25T08:06:17.411Z,7.73
2022-12-25T08:08:20.390Z,8.60
2022-12-25T08:10:23.786Z,7.17
2022-12-25T08:12:26.631Z,7.43
2022-12-25T08:14:30.714Z,7.63
2022-12-25T08:16:33.506Z,7.80
2022-12-25T08:18:37.337Z,7.93
2022-12-25T08:20:40.227Z,7.33
2022-12-25T08:22:43.019Z,7.30
2022-12-25T08:24:45.833Z,7.73
2022-12-25T08:26:49.034Z,7.10
2022-12-25T08:28:52.221Z,6.90
2022-12-25T08:30:56.660Z,7.03
2022-12-25T08:32:59.439Z,6.83
2022-12-25T08:35:02.232Z,6.40
2022-12-25T08:37:05.381Z,6.90
2022-12-25T08:39:08.336Z,6.40
2022-12-25T08:41:25.289Z,6.27
2022-12-25T08:43:28.324Z,6.33
2022-12-25T08:45:35.243Z,7.23
2022-12-25T08:47:39.910Z,6.07
2022-12-25T08:49:42.977Z,6.50
2022-12-25T08:51:46.670Z,6.77
2022-12-25T08:53:50.971Z,7.03
2022-12-25T08:55:58.923Z,7.20
2022-12-25T08:58:02.177Z,6.47
2022-12-25T09:00:05.934Z,6.13
2022-12-25T09:02:10.611Z,5.93
2022-12-25T09:04:15.243Z,6.47
2022-12-25T09:06:18.205Z,6.70
2022-12-25T09:08:22.001Z,5.83
2022-12-25T09:10:24.877Z,5.53
2022-12-25T09:12:27.631Z,6.03
2022-12-25T09:14:31.788Z,6.27
2022-12-25T09:16:34.571Z,5.53
2022-12-25T09:18:37.515Z,6.20
2022-12-25T09:20:41.612Z,6.33
2022-12-25T09:22:44.424Z,6.03
2022-12-25T09:24:47.284Z,6.20
2022-12-25T09:26:50.224Z,6.27
2022-12-25T09:28:53.045Z,6.47
2022-12-25T09:30:56.560Z,6.00
2022-12-25T09:33:00.599Z,5.63
2022-12-25T09:35:03.516Z,6.30
2022-12-25T09:37:07.653Z,5.93
2022-12-25T09:39:10.617Z,6.00
2022-12-25T09:41:18.242Z,6.67
2022-12-25T09:43:22.225Z,6.17
2022-12-25T09:45:29.969Z,6.40
2022-12-25T09:47:36.071Z,5.90
2022-12-25T09:49:44.257Z,5.87
2022-12-25T09:51:50.249Z,6.40
2022-12-25T09:54:01.810Z,6.40
2022-12-25T09:56:09.868Z,6.17
2022-12-25T09:58:13.841Z,6.30
2022-12-25T10:00:20.520Z,6.30
2022-12-25T10:02:59.259Z,5.93
2022-12-25T10:05:29.660Z,6.37
2022-12-25T10:07:44.423Z,5.93
2022-12-25T10:10:07.298Z,6.00
2022-12-25T10:12:26.961Z,6.33
2022-12-25T10:14:39.596Z,5.47
2022-12-25T10:16:49.830Z,6.43
2022-12-25T10:19:06.179Z,9.87
2022-12-25T10:21:13.554Z,9.70
2022-12-25T10:23:20.717Z,8.03
2022-12-25T10:25:26.490Z,7.27
2022-12-25T10:27:33.704Z,7.43
2022-12-25T10:29:38.423Z,6.73
2022-12-25T10:31:42.637Z,5.60
2022-12-25T10:33:45.377Z,5.87
2022-12-25T10:35:48.249Z,6.30
2022-12-25T10:37:59.570Z,6.07
2022-12-25T10:40:02.539Z,6.10
2022-12-25T10:42:39.796Z,6.10
2022-12-25T10:44:54.382Z,6.70
2022-12-25T10:46:58.850Z,6.13
2022-12-25T10:49:04.628Z,7.00
2022-12-25T10:51:08.184Z,7.87
2022-12-25T10:53:20.383Z,6.80
2022-12-25T10:55:28.394Z,7.07
2022-12-25T10:57:32.061Z,7.23
2022-12-25T10:59:43.585Z,7.27
2022-12-25T11:01:48.903Z,7.53
2022-12-25T11:03:54.028Z,6.80
2022-12-25T11:05:56.878Z,7.03
2022-12-25T11:08:01.805Z,7.43
2022-12-25T11:10:16.037Z,7.07
2022-12-25T11:12:20.140Z,6.93
2022-12-25T11:14:23.634Z,6.97
2022-12-25T11:16:30.709Z,6.87
2022-12-25T11:18:44.287Z,6.60
2022-12-25T11:20:51.964Z,6.50
2022-12-25T11:22:54.816Z,5.90
2022-12-25T11:24:57.687Z,5.70
2022-12-25T11:27:02.274Z,6.37
2022-12-25T11:29:15.209Z,6.27
2022-12-25T11:31:21.384Z,6.00
2022-12-25T11:33:31.395Z,6.50
2022-12-25T11:35:45.781Z,7.20
2022-12-25T11:37:50.499Z,6.37
2022-12-25T11:39:53.280Z,6.40
2022-12-25T11:42:00.270Z,7.10
2022-12-25T11:44:08.032Z,7.10
2022-12-25T11:46:18.106Z,6.30
2022-12-25T11:48:27.173Z,6.90
2022-12-25T11:50:34.262Z,6.27
2022-12-25T11:52:39.652Z,6.07
2022-12-25T11:54:51.071Z,6.17
2022-12-25T11:56:54.266Z,5.67
2022-12-25T11:59:01.935Z,5.73
2022-12-25T12:01:08.491Z,5.37
2022-12-25T12:03:19.266Z,5.60
2022-12-25T12:05:30.289Z,6.23
2022-12-25T12:07:36.652Z,5.83
2022-12-25T12:09:48.543Z,5.53
2022-12-25T12:11:59.537Z,5.47
2022-12-25T12:14:12.875Z,5.10
2022-12-25T12:16:16.054Z,5.93
2022-12-25T12:18:22.986Z,5.50
2022-12-25T12:20:32.929Z,5.90
2022-12-25T12:22:36.933Z,5.77
2022-12-25T12:24:42.666Z,5.90
2022-12-25T12:26:48.403Z,5.80
2022-12-25T12:28:53.151Z,5.90
2022-12-25T12:31:01.369Z,6.20
2022-12-25T12:33:10.141Z,6.30
2022-12-25T12:35:18.364Z,6.63
2022-12-25T12:37:28.167Z,6.40
2022-12-25T12:40:00.591Z,6.40
2022-12-25T12:42:01.431Z,6.10
2022-12-25T12:44:07.632Z,6.60
2022-12-25T12:46:21.575Z,6.47
2022-12-25T12:48:29.100Z,5.97
2022-12-25T12:50:37.229Z,6.63
2022-12-25T12:52:42.588Z,6.83
2022-12-25T12:54:57.389Z,7.10
2022-12-25T12:57:01.813Z,6.90
2022-12-25T12:59:04.854Z,7.10
2022-12-25T13:01:20.371Z,7.00
2022-12-25T13:03:35.344Z,7.03
2022-12-25T13:05:42.325Z,6.93
2022-12-25T13:07:56.556Z,6.70
2022-12-25T13:10:10.720Z,6.83
2022-12-25T13:12:14.949Z,7.00
2022-12-25T13:14:21.432Z,7.17
2022-12-25T13:16:28.059Z,6.77
2022-12-25T13:18:31.665Z,6.67
2022-12-25T13:20:46.470Z,6.97
2022-12-25T13:22:53.125Z,7.33
2022-12-25T13:24:58.226Z,7.40
2022-12-25T13:27:01.830Z,7.30
2022-12-25T13:29:11.318Z,7.30
2022-12-25T13:31:19.439Z,7.30
2022-12-25T13:33:23.302Z,6.67
2022-12-25T13:35:26.353Z,6.70
2022-12-25T13:37:32.043Z,7.23
2022-12-25T13:39:37.656Z,6.20
2022-12-25T13:42:02.502Z,6.73
2022-12-25T13:44:12.749Z,6.63
2022-12-25T13:46:16.592Z,6.80
2022-12-25T13:48:20.701Z,6.73
2022-12-25T13:50:26.453Z,6.23
2022-12-25T13:52:33.711Z,6.20
2022-12-25T13:54:37.773Z,6.20
2022-12-25T13:56:48.862Z,6.33
2022-12-25T13:58:51.638Z,6.27
2022-12-25T14:00:56.864Z,6.33
2022-12-25T14:03:00.824Z,6.00
2022-12-25T14:05:04.061Z,5.80
2022-12-25T14:07:11.692Z,6.27
2022-12-25T14:09:15.299Z,6.20
2022-12-25T14:11:22.413Z,6.50
2022-12-25T14:13:28.488Z,6.60
2022-12-25T14:15:33.128Z,6.80
2022-12-25T14:17:35.944Z,7.17
2022-12-25T14:19:38.675Z,7.47
2022-12-25T14:21:49.105Z,7.07
2022-12-25T14:23:52.106Z,7.57
2022-12-25T14:25:54.963Z,7.33
2022-12-25T14:27:59.684Z,7.87
2022-12-25T14:30:02.482Z,7.10
2022-12-25T14:32:07.276Z,7.50
2022-12-25T14:34:18.118Z,7.30
2022-12-25T14:36:21.251Z,8.00
2022-12-25T14:38:27.299Z,7.73
2022-12-25T14:40:32.642Z,8.43
2022-12-25T14:42:35.928Z,8.03
2022-12-25T14:44:41.674Z,8.17
2022-12-25T14:46:44.504Z,8.60
2022-12-25T14:48:47.280Z,9.10
2022-12-25T14:50:57.656Z,8.80
2022-12-25T14:53:00.709Z,9.53
2022-12-25T14:55:07.621Z,9.53
2022-12-25T14:57:19.214Z,8.93
2022-12-25T14:59:26.012Z,9.90
2022-12-25T15:01:33.500Z,9.43
2022-12-25T15:03:37.709Z,9.37
2022-12-25T15:05:41.057Z,9.93
2022-12-25T15:07:43.948Z,9.33
2022-12-25T15:09:46.817Z,9.73
2022-12-25T15:11:50.085Z,9.70
2022-12-25T15:13:52.794Z,9.60
2022-12-25T15:15:59.768Z,9.27
2022-12-25T15:18:05.379Z,9.13
2022-12-25T15:20:11.397Z,8.67
2022-12-25T15:22:14.370Z,9.23
2022-12-25T15:24:18.193Z,9.20
2022-12-25T15:26:21.180Z,9.53
2022-12-25T15:28:23.904Z,9.50
2022-12-25T15:30:26.700Z,8.67
2022-12-25T15:32:29.396Z,8.30
2022-12-25T15:34:33.457Z,8.53
2022-12-25T15:36:36.179Z,9.03
2022-12-25T15:38:39.262Z,8.53
2022-12-25T15:40:42.965Z,8.30
2022-12-25T15:42:48.856Z,8.07
2022-12-25T15:44:52.396Z,8.03
2022-12-25T15:46:55.392Z,9.27
2022-12-25T15:48:58.274Z,8.50
2022-12-25T15:51:03.178Z,8.30
2022-12-25T15:53:05.950Z,8.00
2022-12-25T15:55:09.719Z,8.27
2022-12-25T15:57:18.897Z,7.50
2022-12-25T15:59:22.465Z,8.70
2022-12-25T16:01:25.240Z,7.87
2022-12-25T16:03:28.128Z,7.53
2022-12-25T16:05:30.999Z,7.27
2022-12-25T16:07:36.104Z,6.70
2022-12-25T16:09:38.872Z,6.87
2022-12-25T16:11:43.011Z,7.50
2022-12-25T16:13:46.865Z,6.57
2022-12-25T16:15:49.746Z,6.77
2022-12-25T16:17:52.461Z,6.93
2022-12-25T16:19:55.441Z,6.93
2022-12-25T16:21:58.217Z,7.30
2022-12-25T16:24:02.283Z,8.30
2022-12-25T16:26:05.219Z,7.17
2022-12-25T16:28:10.149Z,6.90
2022-12-25T16:30:15.426Z,7.60
2022-12-25T16:32:20.776Z,7.53
2022-12-25T16:34:23.525Z,7.67
2022-12-25T16:36:27.134Z,7.40
2022-12-25T16:38:31.538Z,8.27
2022-12-25T16:40:35.943Z,7.47
2022-12-25T16:42:39.133Z,8.67
2022-12-25T16:44:42.008Z,8.67
2022-12-25T16:46:44.793Z,8.87
2022-12-25T16:48:47.659Z,8.03
2022-12-25T16:50:50.413Z,10.90
2022-12-25T16:52:53.105Z,8.83
2022-12-25T16:54:55.845Z,8.43
2022-12-25T16:57:00.361Z,11.33
2022-12-25T16:59:03.819Z,9.13
2022-12-25T17:01:08.279Z,8.43
2022-12-25T17:03:11.170Z,8.10
2022-12-25T17:05:14.057Z,8.17
2022-12-25T17:07:18.445Z,8.13
2022-12-25T17:09:21.240Z,7.93
2022-12-25T17:11:27.161Z,8.43
2022-12-25T17:13:31.575Z,8.17
2022-12-25T17:15:34.599Z,8.27
2022-12-25T17:17:37.366Z,7.60
2022-12-25T17:19:40.105Z,7.40
2022-12-25T17:21:42.838Z,8.30
2022-12-25T17:23:45.787Z,8.37
2022-12-25T17:25:48.519Z,7.80
2022-12-25T17:27:51.384Z,8.17
2022-12-25T17:29:55.452Z,8.17
2022-12-25T17:31:58.284Z,8.43
2022-12-25T17:34:03.657Z,8.07
2022-12-25T17:36:09.628Z,8.20
2022-12-25T17:38:12.356Z,8.90
2022-12-25T17:40:15.440Z,8.10
2022-12-25T17:42:18.424Z,7.97
2022-12-25T17:44:22.070Z,8.50
2022-12-25T17:46:28.116Z,8.30
2022-12-25T17:48:30.983Z,7.87
2022-12-25T17:50:39.311Z,8.37
2022-12-25T17:52:44.128Z,8.90
2022-12-25T17:54:46.810Z,8.57
2022-12-25T17:56:50.567Z,8.53
2022-12-25T17:58:54.990Z,8.60
2022-12-25T18:00:58.044Z,8.53
2022-12-25T18:03:10.570Z,8.90
2022-12-25T18:05:14.172Z,8.67
2022-12-25T18:07:17.633Z,8.20
2022-12-25T18:09:20.511Z,8.43
2022-12-25T18:11:27.462Z,8.43
2022-12-25T18:13:30.375Z,9.13
2022-12-25T18:15:33.238Z,8.47
2022-12-25T18:17:36.181Z,9.00
2022-12-25T18:19:40.306Z,8.50
2022-12-25T18:21:43.063Z,9.40
2022-12-25T18:23:46.414Z,9.40
2022-12-25T18:25:49.284Z,9.70
2022-12-25T18:27:52.140Z,9.37
2022-12-25T18:29:54.900Z,9.70
2022-12-25T18:31:57.700Z,9.67
2022-12-25T18:34:00.889Z,10.00
2022-12-25T18:36:05.695Z,9.97
2022-12-25T18:38:09.635Z,9.63
2022-12-25T18:40:12.625Z,10.50
2022-12-25T18:42:47.697Z,9.53
2022-12-25T18:44:50.453Z,10.50
2022-12-25T18:46:53.207Z,10.37
2022-12-25T18:48:57.075Z,10.30
2022-12-25T18:51:01.462Z,10.33
2022-12-25T18:53:06.409Z,10.97
2022-12-25T18:55:10.461Z,10.17
2022-12-25T18:57:13.238Z,11.10
2022-12-25T18:59:15.964Z,10.23
2022-12-25T19:01:21.474Z,10.43
2022-12-25T19:03:24.536Z,10.47
2022-12-25T19:05:27.340Z,10.07
2022-12-25T19:07:30.107Z,10.10
2022-12-25T19:09:34.219Z,10.77
2022-12-25T19:11:41.992Z,10.80
2022-12-25T19:13:48.905Z,10.63
2022-12-25T19:15:51.639Z,10.40
2022-12-25T19:17:54.392Z,10.63
2022-12-25T19:19:57.113Z,10.90
2022-12-25T19:21:59.835Z,10.37
2022-12-25T19:24:02.862Z,11.33
2022-12-25T19:26:07.801Z,10.20
2022-12-25T19:28:10.511Z,10.73
2022-12-25T19:30:14.358Z,10.30
2022-12-25T19:32:17.242Z,10.97
2022-12-25T19:34:19.976Z,10.23
2022-12-25T19:36:22.686Z,10.37
2022-12-25T19:38:25.520Z,9.67
2022-12-25T19:40:28.228Z,9.63
2022-12-25T19:42:32.450Z,10.30
2022-12-25T19:44:35.233Z,10.23
2022-12-25T19:46:40.345Z,10.23
2022-12-25T19:48:43.223Z,10.83
2022-12-25T19:50:45.967Z,10.07
2022-12-25T19:52:49.035Z,10.83
2022-12-25T19:54:52.515Z,10.20
2022-12-25T19:56:55.293Z,10.53
2022-12-25T19:58:59.883Z,10.30
2022-12-25T20:01:04.942Z,10.63
2022-12-25T20:03:08.062Z,11.50
2022-12-25T20:05:11.238Z,10.47
2022-12-25T20:07:14.041Z,10.80
2022-12-25T20:09:21.199Z,10.17
2022-12-25T20:11:26.870Z,10.87
2022-12-25T20:13:29.574Z,10.03
2022-12-25T20:15:33.632Z,9.90
2022-12-25T20:17:36.326Z,10.10
2022-12-25T20:19:39.125Z,9.70
2022-12-25T20:21:42.049Z,9.97
2022-12-25T20:23:45.812Z,10.30
2022-12-25T20:25:48.705Z,11.90
2022-12-25T20:27:51.454Z,10.33
2022-12-25T20:29:54.157Z,10.10
2022-12-25T20:31:58.489Z,10.13
2022-12-25T20:34:04.933Z,10.70
2022-12-25T20:36:08.565Z,9.80
2022-12-25T20:38:11.279Z,10.07
2022-12-25T20:40:14.245Z,10.20
2022-12-25T20:42:16.992Z,9.17
2022-12-25T20:44:19.809Z,9.57
2022-12-25T20:46:22.657Z,10.10
2022-12-25T20:48:26.931Z,10.07
2022-12-25T20:50:29.639Z,9.70
2022-12-25T20:52:32.402Z,9.30
2022-12-25T20:54:35.269Z,8.37
2022-12-25T20:56:38.552Z,9.38
2022-12-25T20:58:41.744Z,9.13
2022-12-25T21:00:46.106Z,8.07
2022-12-25T21:02:49.287Z,8.23
2022-12-25T21:04:54.366Z,8.37
2022-12-25T21:06:57.265Z,8.80
2022-12-25T21:09:00.011Z,8.67
2022-12-25T21:11:04.142Z,7.77
2022-12-25T21:13:06.889Z,7.40
2022-12-25T21:15:15.122Z,7.83
2022-12-25T21:17:18.578Z,7.60
2022-12-25T21:19:21.384Z,7.00
2022-12-25T21:21:25.740Z,7.60
2022-12-25T21:23:30.148Z,7.20
2022-12-25T21:25:32.874Z,7.70
2022-12-25T21:27:35.618Z,7.20
2022-12-25T21:29:38.529Z,7.73
2022-12-25T21:31:55.465Z,8.27
2022-12-25T21:33:59.300Z,7.70
2022-12-25T21:36:07.022Z,8.20
2022-12-25T21:38:11.139Z,7.53
2022-12-25T21:40:16.497Z,7.70
2022-12-25T21:42:19.462Z,7.47
2022-12-25T21:44:22.192Z,7.60
2022-12-25T21:46:25.861Z,7.03
2022-12-25T21:48:28.744Z,6.50
2022-12-25T21:50:49.539Z,5.87
2022-12-25T21:52:52.244Z,6.50
2022-12-25T21:54:56.641Z,6.03
2022-12-25T21:56:59.409Z,6.00
2022-12-25T21:59:03.219Z,5.70
2022-12-25T22:01:06.449Z,5.80
2022-12-25T22:03:09.251Z,5.60
2022-12-25T22:05:32.396Z,5.43
2022-12-25T22:07:34.240Z,5.57
2022-12-25T22:09:37.320Z,5.37
2022-12-25T22:11:58.752Z,5.60
2022-12-25T22:14:18.719Z,5.30
2022-12-25T22:16:58.952Z,5.60
2022-12-25T22:19:19.412Z,5.90
2022-12-25T22:21:22.489Z,6.17
2022-12-25T22:23:25.299Z,5.83
2022-12-25T22:25:28.161Z,5.60
2022-12-25T22:27:34.206Z,5.80
2022-12-25T22:29:37.240Z,6.03
2022-12-25T22:31:46.409Z,5.87
2022-12-25T22:33:49.844Z,5.80
2022-12-25T22:36:02.208Z,5.88
2022-12-25T22:38:05.045Z,6.03
2022-12-25T22:40:09.889Z,5.80
2022-12-25T22:42:13.178Z,5.77
2022-12-25T22:44:18.267Z,5.43
2022-12-25T22:46:21.360Z,6.10
2022-12-25T22:48:24.218Z,5.03
2022-12-25T22:50:27.010Z,5.57
2022-12-25T22:52:29.982Z,5.57
2022-12-25T22:54:33.225Z,5.83
2022-12-25T22:56:36.112Z,5.73
2022-12-25T22:58:38.992Z,6.20
2022-12-25T23:00:46.399Z,5.97
2022-12-25T23:02:49.728Z,5.57
2022-12-25T23:04:52.585Z,5.60
2022-12-25T23:06:55.387Z,5.43
2022-12-25T23:08:58.349Z,5.68
2022-12-25T23:11:02.631Z,5.30
2022-12-25T23:13:23.122Z,5.63
2022-12-25T23:15:27.470Z,5.53
2022-12-25T23:17:49.291Z,6.03
2022-12-25T23:20:09.561Z,5.10
2022-12-25T23:22:30.667Z,5.20
2022-12-25T23:24:51.041Z,5.33
2022-12-25T23:26:53.800Z,5.53
2022-12-25T23:29:14.393Z,5.30
2022-12-25T23:31:17.528Z,5.20
2022-12-25T23:33:21.673Z,5.17
2022-12-25T23:35:24.428Z,5.70
2022-12-25T23:37:27.197Z,5.53
2022-12-25T23:39:29.953Z,4.93
2022-12-25T23:41:32.863Z,5.20
2022-12-25T23:43:37.906Z,5.30
2022-12-25T23:45:40.694Z,5.60
2022-12-25T23:47:43.563Z,5.43
2022-12-25T23:49:49.494Z,5.40
2022-12-25T23:51:52.940Z,5.70
2022-12-25T23:53:55.811Z,5.43
2022-12-25T23:55:58.616Z,5.17
2022-12-25T23:58:01.350Z,5.47
